Date,TemperatureHighF,TemperatureAvgF,TemperatureLowF,DewpointHighF,DewpointAvgF,DewpointLowF,HumidityHigh,HumidityAvg,HumidityLow,PressureMaxIn,PressureMinIn,WindSpeedMaxMPH,WindSpeedAvgMPH,GustSpeedMaxMPH,PrecipitationSumIn
2014-1-1,43.3,37.5,31.2,99.9,34.1,21.2,67,64,59,30.35,30.18,2,0,2,0.00
2014-1-2,44.7,41.8,37.9,32.2,29.8,27.4,66,62,59,30.19,29.85,3,0,7,0.00
2014-1-3,45.1,37.4,30.0,41.9,30.3,25.5,90,76,63,30.31,29.94,6,0,11,0.00
2014-1-4,46.0,32.6,27.1,40.2,28.2,23.3,90,84,75,30.41,30.31,5,0,5,0.76
2014-1-5,42.0,29.9,24.6,38.7,26.3,21.0,90,86,80,30.45,30.27,2,0,2,0.02
2014-1-6,36.8,31.3,25.7,32.9,26.7,21.5,89,83,76,30.27,30.08,3,0,4,0.00
2014-1-7,43.5,40.2,35.4,33.2,31.8,29.5,88,72,63,30.08,29.94,3,0,3,2.62
2014-1-8,45.3,43.6,41.3,41.2,31.6,29.2,89,63,56,29.97,29.65,11,1,19,3.23
2014-1-9,46.0,42.3,39.5,42.6,38.5,34.4,89,86,73,29.95,29.68,19,2,23,0.06
2014-1-10,51.4,45.8,43.3,47.3,42.0,40.2,89,87,85,30.03,29.51,20,3,23,0.06
2014-1-11,56.4,52.5,47.8,48.2,47.2,44.4,88,82,71,29.51,29.38,19,3,22,0.08
2014-1-12,48.7,44.0,39.3,99.9,65.6,34.0,89,86,81,30.22,29.75,13,2,15,0.22
2014-1-13,49.8,48.5,47.4,99.9,68.2,43.6,88,87,86,30.48,30.22,17,3,24,0.06
2014-1-14,48.3,48.3,48.3,99.9,99.9,99.9,88,88,88,30.48,30.48,0,0,0,0.00
2014-1-15,48.5,40.2,34.1,99.9,43.1,31.2,89,88,83,30.55,30.44,2,0,2,0.10
2014-1-16,39.0,36.4,33.7,99.9,33.7,27.5,87,79,75,30.45,30.31,3,0,3,0.04
2014-1-17,34.7,32.8,30.9,99.9,47.7,24.1,76,74,71,30.31,30.14,2,0,3,0.02
2014-1-18,48.3,35.5,30.2,99.9,36.5,22.2,89,77,63,30.21,30.11,6,0,6,0.30
2014-1-19,37.9,35.5,33.4,29.8,28.2,26.4,80,74,70,30.26,30.11,4,0,6,0.00
2014-1-20,45.6,34.1,29.8,41.1,27.6,24.5,89,77,67,30.30,30.20,4,0,4,0.00
2014-1-21,49.0,36.5,28.2,45.7,31.6,23.1,89,83,69,30.29,30.15,6,0,10,0.10
2014-1-22,44.9,40.8,37.9,40.7,36.1,33.8,88,83,76,30.38,30.27,2,0,3,0.18
2014-1-23,50.1,38.4,30.7,43.2,34.0,27.6,89,84,76,30.41,30.31,6,0,6,0.28
2014-1-24,60.0,37.7,27.6,99.9,37.8,23.4,89,79,59,30.37,30.21,5,0,6,0.30
2014-1-25,59.7,36.7,27.6,44.2,31.2,24.5,89,81,55,30.32,30.22,3,0,4,0.18
2014-1-26,53.4,34.2,26.6,42.1,29.8,23.8,89,84,64,30.22,30.04,2,0,3,0.12
2014-1-27,40.2,33.0,27.1,37.0,29.7,24.0,89,87,83,30.16,30.07,5,0,5,0.04
2014-1-28,48.7,42.2,36.6,43.4,36.8,31.7,88,81,75,30.17,29.84,7,0,7,0.48
2014-1-29,46.9,42.8,40.6,99.9,40.3,33.3,86,77,71,29.84,29.58,6,0,6,3.81
2014-1-30,43.7,41.0,38.4,39.2,36.6,32.8,89,85,72,29.88,29.76,15,1,15,0.30
2014-1-31,43.7,38.4,35.4,40.3,34.1,31.8,89,84,78,30.10,29.88,4,0,6,0.39
2014-2-1,42.4,37.1,32.1,99.9,32.7,27.6,86,82,77,30.13,30.03,5,0,5,0.02
2014-2-2,46.5,34.4,28.5,37.1,29.5,23.7,89,82,67,30.03,29.88,8,0,8,0.00
2014-2-3,41.7,30.9,24.0,31.2,25.7,20.4,89,81,61,30.15,29.96,5,0,8,0.02
2014-2-4,33.4,26.9,21.0,25.9,18.0,9.5,89,71,51,30.37,30.15,9,1,9,0.00
2014-2-5,29.6,22.4,18.3,9.5,4.1,0.0,54,45,35,30.43,30.27,12,3,102,0.00
2014-2-6,27.3,22.9,18.6,11.1,4.2,0.4,58,44,37,30.27,29.75,9,2,10,0.00
2014-2-7,39.9,26.9,19.7,22.6,15.6,11.1,72,62,47,29.91,29.73,4,0,5,0.00
2014-2-8,39.3,31.0,23.7,24.9,19.9,16.5,84,65,45,29.97,29.79,15,2,15,0.00
2014-2-9,36.1,32.5,29.2,31.1,27.9,24.0,88,83,75,30.04,29.90,6,1,7,0.08
2014-2-10,47.2,40.2,33.4,43.9,35.7,29.6,88,84,73,30.01,29.94,7,1,16,2.27
2014-2-11,51.7,44.4,38.4,44.9,40.1,34.9,88,85,74,30.08,29.55,11,1,12,3.48
2014-2-12,54.3,47.5,41.3,47.9,40.8,35.6,88,78,60,29.86,29.43,19,2,20,0.42
2014-2-13,55.2,46.1,39.9,42.8,39.2,33.8,88,77,55,30.03,29.69,14,2,17,0.18
2014-2-14,50.1,45.4,34.7,45.3,39.9,31.5,88,81,56,29.92,29.55,16,2,16,0.67
2014-2-15,48.3,40.0,33.0,99.9,36.3,30.1,89,86,62,29.92,29.24,19,2,23,1.15
2014-2-16,46.2,41.0,35.7,99.9,37.1,32.5,89,82,64,29.92,29.62,18,2,18,1.57
2014-2-17,47.1,40.2,37.0,41.2,35.7,32.3,88,84,76,29.90,29.67,13,1,15,0.50
2014-2-18,45.3,40.8,38.4,41.9,36.9,34.3,88,86,81,29.91,29.55,15,2,26,2.74
2014-2-19,46.0,39.6,37.0,38.5,35.2,33.7,89,84,71,30.08,29.81,22,1,22,1.65
2014-2-20,49.0,43.1,36.8,40.2,37.7,33.6,89,82,67,30.16,29.95,17,2,19,0.02
2014-2-21,40.8,37.1,33.4,36.4,33.4,29.4,88,86,83,30.24,30.15,9,0,9,0.28
2014-2-22,38.4,34.9,32.1,99.9,31.1,27.7,89,84,79,30.17,29.98,4,0,4,0.16
2014-2-23,39.3,37.3,35.2,99.9,32.1,29.2,81,76,73,29.99,29.89,4,0,4,0.24
2014-2-24,39.9,38.1,36.6,33.3,30.8,28.5,78,75,71,30.05,29.96,6,0,10,0.54
2014-2-25,50.9,44.4,37.9,37.5,34.7,31.8,89,70,57,30.07,29.93,12,4,12,0.06
2014-2-26,59.1,49.2,42.0,38.3,32.9,30.8,67,54,40,29.93,29.66,15,2,15,0.24
2014-2-27,54.1,45.2,38.4,41.0,36.6,30.0,81,72,60,29.72,29.59,6,0,10,0.16
2014-2-28,60.4,44.6,32.5,44.6,37.2,28.2,88,76,54,29.70,29.46,7,0,9,0.40
2014-3-1,40.6,36.0,32.1,32.7,28.3,25.5,87,74,64,29.66,29.52,12,2,13,0.26
2014-3-2,45.6,35.8,32.0,39.3,31.5,27.0,88,84,75,29.69,29.52,9,2,17,0.50
2014-3-3,55.5,46.9,40.8,99.9,42.8,33.8,87,77,66,29.84,29.64,14,1,14,0.14
2014-3-4,50.5,47.3,45.1,99.9,49.3,38.0,86,79,71,29.91,29.78,12,0,12,0.26
2014-3-5,57.0,50.0,45.5,99.9,43.4,35.8,85,71,57,29.77,29.40,9,1,11,1.12
2014-3-6,53.9,49.2,46.9,99.9,46.7,40.4,88,85,74,30.00,29.46,18,2,20,0.08
2014-3-7,61.3,49.7,40.0,49.1,43.4,36.4,87,79,60,30.21,30.01,12,1,12,0.00
2014-3-8,52.7,46.2,37.2,47.3,40.9,33.9,88,82,67,30.08,29.68,10,0,15,0.50
2014-3-9,57.3,51.2,47.1,52.3,45.0,40.8,88,80,67,29.96,29.76,19,1,19,0.28
2014-3-10,48.0,44.5,41.1,99.9,39.9,34.5,88,78,69,30.39,29.88,6,0,6,0.12
2014-3-11,60.9,43.8,35.7,48.2,37.0,28.6,88,77,60,30.52,30.37,6,0,6,3.30
2014-3-12,64.2,43.9,31.1,46.1,36.2,27.9,89,76,37,30.39,30.08,6,0,7,0.10
2014-3-13,60.0,44.3,32.3,45.3,37.7,29.2,88,79,56,30.13,29.95,6,0,8,0.04
2014-3-14,55.9,48.5,39.0,47.6,42.5,35.7,88,80,63,30.29,29.85,13,1,21,0.12
2014-3-15,60.6,47.9,37.4,99.9,42.1,34.1,88,80,58,30.28,30.10,9,0,9,0.22
2014-3-16,49.6,44.5,36.6,99.9,39.5,30.4,81,76,73,30.15,29.94,10,0,10,0.56
2014-3-17,48.0,39.6,35.2,99.9,39.5,28.3,88,79,68,30.28,29.95,4,0,5,0.08
2014-3-18,49.6,41.9,33.4,44.3,37.8,29.9,88,85,77,30.29,30.11,2,0,2,0.02
2014-3-19,50.1,41.3,33.4,45.4,37.3,29.4,89,86,77,30.16,29.95,12,1,12,0.20
2014-3-20,50.7,37.7,29.4,40.7,31.9,25.2,88,80,61,30.32,30.16,7,0,7,2.55
2014-3-21,55.2,38.2,28.7,36.7,30.4,25.9,89,76,45,30.32,30.20,13,0,13,1.50
2014-3-22,55.0,40.5,28.0,39.5,31.8,24.9,88,73,47,30.28,30.13,7,0,7,0.67
2014-3-23,59.7,44.6,37.2,41.7,36.1,31.6,86,73,48,30.27,30.17,10,0,10,0.00
2014-3-24,70.6,50.4,32.5,43.9,35.5,29.1,88,62,30,30.19,29.84,8,0,9,0.08
2014-3-25,55.2,49.3,43.8,50.2,41.6,35.7,87,75,57,29.84,29.49,23,0,23,0.61
2014-3-26,53.7,44.5,37.5,44.4,40.0,34.3,88,84,68,29.61,29.48,2,0,2,0.14
2014-3-27,52.3,45.5,41.5,99.9,41.6,37.6,88,85,77,29.85,29.54,7,0,8,0.02
2014-3-28,48.5,44.5,41.7,99.9,40.4,37.2,88,84,78,29.85,29.65,9,0,9,0.30
2014-3-29,50.5,44.6,41.5,45.8,39.5,35.0,88,82,75,29.78,29.66,7,0,7,0.12
2014-3-30,55.9,45.8,36.5,44.3,39.5,32.7,88,79,62,29.95,29.78,10,0,10,0.18
2014-3-31,64.0,46.7,32.1,42.4,35.2,29.3,89,68,36,29.94,29.67,9,0,11,0.10
2014-4-1,62.4,45.8,34.8,43.3,36.7,30.8,87,72,46,29.86,29.68,7,0,8,0.12
2014-4-2,60.2,46.1,35.4,43.3,37.4,31.6,88,73,44,29.97,29.86,8,0,8,0.02
2014-4-3,57.2,45.1,36.5,44.2,38.4,32.7,87,78,52,29.97,29.83,8,0,10,0.26
2014-4-4,57.3,48.1,42.4,43.8,40.4,37.1,87,76,54,29.92,29.85,7,0,11,0.06
2014-4-5,50.7,46.7,42.4,99.9,43.1,38.5,88,86,80,30.03,29.92,8,0,8,0.12
2014-4-6,57.3,50.4,45.6,48.4,45.3,42.0,88,83,71,30.23,30.04,3,0,6,0.00
2014-4-7,76.2,58.1,45.5,55.0,48.2,42.1,88,72,43,30.24,30.02,6,0,7,0.48
2014-4-8,61.7,53.5,43.8,99.9,48.5,39.0,87,78,65,30.12,29.99,7,0,7,0.46
2014-4-9,59.7,47.2,39.3,44.2,38.8,32.8,88,74,48,30.22,30.11,9,0,9,0.20
2014-4-10,61.3,47.4,35.9,43.3,37.6,32.4,88,71,48,30.22,30.09,6,0,6,0.06
2014-4-11,60.6,47.6,35.4,46.4,39.6,31.6,88,74,58,30.12,29.97,6,0,8,0.02
2014-4-12,63.6,49.2,38.4,46.6,40.7,34.6,87,74,47,30.13,30.01,6,0,9,0.04
2014-4-13,73.0,52.7,34.8,43.1,36.1,31.4,88,59,25,30.23,30.11,6,0,8,0.46
2014-4-14,71.2,53.7,35.7,45.8,36.2,30.5,84,55,27,30.11,29.98,15,0,15,0.04
2014-4-15,60.4,50.6,42.6,47.0,40.3,36.9,87,69,45,30.14,30.02,10,0,10,0.08
2014-4-16,50.7,47.6,45.6,99.9,44.4,41.6,87,85,79,30.03,29.89,6,0,8,0.46
2014-4-17,51.4,48.1,42.6,45.9,41.6,38.1,85,78,70,29.89,29.69,11,0,11,0.40
2014-4-18,58.6,47.0,39.9,45.3,39.0,33.8,88,74,54,30.06,29.87,10,0,10,0.12
2014-4-19,42.6,40.9,39.5,37.2,35.8,34.5,83,82,81,29.87,29.78,4,0,4,0.00
2014-4-20,64.7,50.3,38.2,45.3,40.2,35.0,88,70,43,30.23,30.08,9,0,16,0.02
2014-4-21,66.0,50.8,41.9,49.0,42.5,36.9,87,74,50,30.09,29.77,11,0,11,0.00
2014-4-22,56.1,44.9,39.0,45.8,39.1,34.8,87,81,59,29.86,29.78,14,0,14,0.06
2014-4-23,54.3,46.3,39.9,46.1,41.2,36.0,88,83,69,29.87,29.62,12,0,12,0.02
2014-4-24,55.9,49.2,42.9,49.4,43.5,39.3,87,81,69,29.86,29.57,15,1,15,0.04
2014-4-25,61.5,48.0,38.8,47.0,39.4,33.3,88,74,46,29.86,29.74,6,0,9,0.00
2014-4-26,62.5,49.2,41.1,42.6,38.4,33.0,87,68,38,29.80,29.60,10,0,10,0.00
2014-4-27,54.3,46.8,42.0,46.2,40.9,38.4,87,80,68,30.06,29.61,18,1,18,0.02
2014-4-28,64.2,50.6,40.2,45.5,40.0,35.7,87,69,43,30.30,30.06,3,0,8,0.02
2014-4-29,78.6,61.7,41.7,50.9,37.9,31.5,85,47,24,30.40,30.30,7,0,11,0.00
2014-4-30,87.8,68.8,50.5,48.3,40.4,33.7,59,38,20,30.34,30.11,9,0,9,0.00
2014-5-1,90.1,71.0,50.7,52.0,45.2,40.1,72,43,20,30.11,29.93,13,0,13,0.08
2014-5-2,71.7,60.9,50.3,52.6,48.0,41.7,86,64,47,29.99,29.85,20,0,20,0.04
2014-5-3,57.5,51.7,48.3,51.4,46.4,43.4,87,82,66,29.89,29.69,12,0,12,0.78
2014-5-4,58.8,50.1,46.4,52.7,44.5,40.6,87,81,74,29.82,29.69,7,0,8,0.20
2014-5-5,58.8,50.2,46.2,54.6,44.8,40.2,88,82,71,29.98,29.82,7,0,7,0.10
2014-5-6,63.3,52.3,45.6,51.1,46.2,41.7,87,80,62,29.99,29.91,4,0,7,0.00
2014-5-7,70.1,55.0,43.7,51.7,45.3,40.0,88,72,45,29.99,29.81,10,0,10,0.00
2014-5-8,49.8,48.5,47.2,45.0,43.8,42.7,85,84,82,29.84,29.80,0,0,0,0.00
2014-5-9,58.6,50.3,44.9,49.3,44.9,41.5,88,82,64,29.96,29.70,13,1,13,0.00
2014-5-10,56.4,48.4,43.7,49.6,44.2,40.0,88,85,76,30.21,29.95,3,0,4,0.00
2014-5-11,69.4,53.8,40.4,51.5,45.3,36.9,88,75,51,30.27,30.18,9,0,9,0.00
2014-5-12,81.3,62.0,44.4,51.3,42.9,36.8,88,56,21,30.29,30.18,5,0,8,0.00
2014-5-13,85.6,65.7,48.3,50.6,45.3,39.3,77,51,27,30.28,30.20,7,0,7,0.00
2014-5-14,88.5,68.5,50.7,57.1,51.3,44.4,83,57,30,30.25,30.04,7,0,7,0.00
2014-5-15,85.6,68.9,52.8,61.4,53.3,41.3,85,60,39,30.03,29.88,12,0,12,0.00
2014-5-16,71.0,60.0,51.4,52.7,48.3,44.6,80,66,48,30.06,29.96,9,0,9,0.00
2014-5-17,71.9,59.5,51.4,50.7,47.6,44.4,78,66,44,30.01,29.81,5,0,10,0.00
2014-5-18,70.5,55.9,48.0,52.1,48.1,43.7,86,76,46,29.86,29.73,8,0,16,0.02
2014-5-19,72.6,57.9,49.8,54.0,49.2,44.6,87,74,48,30.01,29.85,5,0,5,0.22
2014-5-20,76.8,59.5,44.7,55.6,48.9,40.8,87,69,48,30.08,29.99,8,0,8,0.06
2014-5-21,69.9,57.7,49.6,54.7,48.8,44.2,83,73,56,30.12,30.05,2,0,6,0.12
2014-5-22,80.4,63.7,48.5,59.1,52.5,44.5,86,69,47,30.09,29.93,7,0,10,0.12
2014-5-23,68.9,59.8,54.6,60.8,53.9,50.2,86,81,68,30.07,29.90,6,0,6,0.04
2014-5-24,70.3,59.0,50.1,55.2,50.7,45.5,87,75,54,30.12,30.04,8,0,8,0.00
2014-5-25,63.6,54.1,48.7,54.0,49.0,44.4,87,83,67,30.08,29.93,2,0,3,0.04
2014-5-26,66.7,57.2,49.8,53.1,47.6,43.5,87,71,52,30.11,29.93,8,0,14,0.00
2014-5-27,69.4,56.8,47.2,50.2,45.1,40.9,86,67,39,30.11,29.98,5,0,11,0.00
2014-5-28,67.0,54.6,47.8,50.8,46.9,42.3,86,76,47,30.09,30.00,5,0,10,0.00
2014-5-29,65.8,55.4,47.4,49.1,46.3,42.5,84,72,53,30.16,30.09,4,0,6,0.00
2014-5-30,74.4,57.7,42.0,54.2,46.6,38.1,87,69,45,30.12,29.90,6,0,11,0.02
2014-5-31,78.0,61.8,45.3,54.4,48.1,41.0,87,63,37,30.01,29.93,9,0,9,0.00
2014-6-1,75.9,60.6,50.0,55.3,50.3,45.2,85,70,46,30.05,29.90,9,0,9,0.00
2014-6-2,79.1,63.3,48.3,57.1,51.7,44.3,87,68,42,29.93,29.77,6,0,11,0.00
2014-6-3,63.3,57.7,52.5,52.2,49.6,46.3,82,75,65,30.03,29.82,9,0,9,0.00
2014-6-4,71.2,59.5,51.6,56.3,50.8,47.2,86,74,56,30.07,30.00,8,0,11,0.00
2014-6-5,76.6,60.6,45.3,53.2,47.9,41.3,87,66,38,30.10,29.97,8,0,9,0.02
2014-6-6,79.8,62.4,45.3,52.0,46.3,41.0,86,59,33,30.08,29.98,8,0,8,0.00
2014-6-7,77.9,63.8,52.3,57.2,50.7,44.5,82,64,42,30.11,30.04,12,0,12,0.02
2014-6-8,78.4,63.1,49.2,57.9,52.4,44.9,86,70,45,30.14,29.99,9,0,9,0.12
2014-6-9,71.0,60.9,51.9,53.8,50.1,43.9,85,69,50,30.10,30.00,6,0,7,0.00
2014-6-10,65.4,55.6,44.4,53.1,47.4,40.1,86,74,60,30.05,30.02,6,0,6,0.00
2014-6-11,78.0,62.3,45.6,54.6,49.1,42.0,87,65,38,30.03,29.77,9,0,12,0.00
2014-6-12,66.9,57.1,50.9,54.8,50.2,46.4,86,78,64,29.83,29.74,5,0,9,0.10
2014-6-13,55.2,52.5,50.7,51.2,46.9,44.6,87,81,75,30.04,29.81,9,0,9,0.04
2014-6-14,63.1,55.5,52.1,53.1,49.1,46.3,86,79,68,30.05,29.93,7,0,7,0.06
2014-6-15,63.1,52.8,48.0,55.5,47.6,41.8,87,82,73,29.92,29.77,3,0,4,0.22
2014-6-16,64.9,52.7,46.2,56.4,46.0,38.3,87,78,68,29.92,29.81,6,0,6,0.08
2014-6-17,60.0,53.9,48.3,54.0,48.9,42.9,87,83,77,30.06,29.92,0,0,4,0.20
2014-6-18,69.2,58.0,51.0,54.6,50.1,46.5,86,76,57,30.06,29.96,8,0,8,0.04
2014-6-19,79.8,62.7,49.2,57.2,51.9,45.5,87,70,43,29.97,29.86,9,0,9,0.02
2014-6-20,68.7,57.6,49.0,53.2,48.7,44.2,87,73,50,30.10,29.95,4,0,8,0.24
2014-6-21,77.5,59.7,42.6,51.9,47.0,39.0,87,65,39,30.09,29.94,7,0,8,0.10
2014-6-22,80.7,62.6,45.1,55.2,49.1,40.9,87,64,34,30.04,29.90,7,0,9,0.00
2014-6-23,80.2,65.5,51.0,57.9,51.3,45.7,85,63,40,30.01,29.90,11,0,11,0.04
2014-6-24,76.0,64.0,56.8,61.4,55.3,51.4,86,74,55,30.04,29.95,2,0,5,0.06
2014-6-25,82.2,66.6,52.7,61.5,55.6,48.6,87,69,43,29.97,29.71,8,0,13,0.00
2014-6-26,71.2,62.8,58.4,60.5,56.1,50.7,86,79,67,29.78,29.72,10,0,10,0.04
2014-6-27,69.4,60.0,54.3,62.1,53.9,49.7,86,81,68,29.84,29.68,13,0,13,0.02
2014-6-28,68.5,60.2,54.8,60.3,54.0,49.1,86,80,68,29.98,29.84,5,0,13,0.08
2014-6-29,68.7,60.8,52.1,57.2,53.2,47.9,86,76,65,30.16,29.98,7,0,7,0.02
2014-6-30,82.2,64.0,49.2,61.1,53.7,44.9,87,71,42,30.18,29.95,10,0,11,0.04
2014-7-1,97.8,73.4,52.3,67.5,58.8,48.2,87,64,29,29.96,29.68,6,0,6,0.20
2014-7-2,82.7,69.5,57.7,61.5,56.5,51.2,86,66,36,29.96,29.71,5,0,7,0.10
2014-7-3,71.0,62.1,55.9,56.0,53.0,49.5,86,73,55,30.04,29.95,6,0,6,0.02
2014-7-4,77.5,63.5,51.4,56.5,51.4,46.4,85,66,46,30.01,29.91,6,0,11,0.00
2014-7-5,78.0,64.7,52.3,59.9,54.2,47.9,86,71,45,30.05,29.97,6,0,7,0.02
2014-7-6,87.4,70.5,57.0,64.9,59.2,52.8,86,69,44,30.08,30.02,5,0,11,0.72
2014-7-7,83.3,67.8,58.4,68.2,60.4,54.2,86,78,58,30.07,29.95,7,0,7,0.00
2014-7-8,89.9,72.0,55.9,65.0,59.0,51.8,86,66,39,30.00,29.90,10,0,11,0.02
2014-7-9,85.6,69.6,54.6,61.2,56.3,50.5,86,65,42,29.96,29.84,9,0,9,0.00
2014-7-10,88.3,69.7,53.9,62.0,55.7,49.8,86,64,37,29.92,29.80,10,0,10,0.00
2014-7-11,93.5,73.4,52.8,63.5,57.1,48.4,86,61,34,29.91,29.85,7,0,7,0.00
2014-7-12,96.6,75.6,58.8,68.8,60.8,54.3,86,63,39,30.02,29.94,4,0,7,0.00
2014-7-13,88.8,73.2,57.3,67.4,60.9,51.9,85,67,44,30.04,29.95,2,0,5,0.00
2014-7-14,87.0,72.9,60.2,64.7,61.2,55.8,86,69,44,30.05,29.97,9,0,9,0.00
2014-7-15,92.4,73.8,59.1,66.4,60.6,54.9,86,66,37,30.04,29.90,8,0,10,0.02
2014-7-16,93.7,74.3,57.0,62.9,58.2,52.8,86,61,32,29.95,29.82,9,0,11,0.00
2014-7-17,82.9,68.3,58.4,60.3,55.7,51.9,80,66,42,29.97,29.87,9,0,11,0.00
2014-7-18,78.6,66.5,53.2,59.4,54.6,48.5,85,67,49,30.02,29.94,9,0,9,0.02
2014-7-19,79.8,67.7,59.5,65.2,58.9,54.3,84,74,55,30.00,29.85,16,1,16,0.00
2014-7-20,65.4,59.4,55.0,57.7,53.5,50.1,86,81,67,29.92,29.87,0,0,6,0.08
2014-7-21,78.9,65.0,54.6,57.2,52.8,49.1,86,67,44,29.98,29.88,10,0,13,0.00
2014-7-22,72.6,62.2,52.8,60.4,54.8,47.8,86,77,65,30.01,29.93,4,0,4,0.00
2014-7-23,61.3,58.5,54.6,56.7,51.9,47.7,86,79,70,30.01,29.88,2,0,7,0.26
2014-7-24,62.4,56.8,53.7,57.8,52.6,49.0,87,86,82,30.14,29.99,9,0,9,0.06
2014-7-25,78.4,62.4,51.6,60.9,53.5,46.6,87,74,52,30.13,29.99,6,0,9,0.08
2014-7-26,85.2,66.0,49.0,62.2,54.3,45.3,87,68,43,30.10,30.02,7,0,8,0.28
2014-7-27,87.6,68.2,50.3,63.5,55.9,46.3,86,67,41,30.12,29.98,6,0,9,0.00
2014-7-28,92.3,72.2,53.7,64.2,57.3,49.5,86,63,34,30.06,29.97,11,0,11,0.00
2014-7-29,90.1,71.5,55.4,63.4,56.3,50.9,86,62,36,30.06,29.97,7,0,10,0.00
2014-7-30,88.5,70.1,53.9,63.5,55.7,48.6,86,63,39,30.08,29.99,6,0,6,0.00
2014-7-31,91.2,71.0,53.2,63.5,55.4,48.2,86,61,37,30.06,29.93,5,0,5,0.00
2014-8-1,89.7,70.7,55.0,63.4,56.4,49.5,85,63,40,30.01,29.86,7,0,7,0.00
2014-8-2,88.5,71.3,57.9,66.1,59.6,53.4,86,68,42,29.93,29.86,6,0,8,0.00
2014-8-3,93.9,74.9,59.5,67.8,61.0,55.3,86,65,34,29.99,29.85,3,0,6,0.00
2014-8-4,95.7,74.7,57.5,65.3,58.6,52.7,86,61,31,29.92,29.83,5,0,9,0.00
2014-8-5,82.5,67.6,55.5,61.5,56.0,51.1,86,68,47,30.00,29.90,7,0,12,0.00
2014-8-6,84.1,67.7,56.2,63.9,57.4,51.8,86,71,47,30.07,29.97,10,0,10,0.00
2014-8-7,83.1,67.5,54.1,60.9,55.6,49.4,86,68,43,30.02,29.93,10,0,10,0.00
2014-8-8,81.1,66.8,53.9,57.8,52.2,47.9,82,61,40,30.04,29.97,9,0,100,0.00
2014-8-9,84.7,66.9,50.5,58.5,52.0,45.8,86,61,37,30.09,29.99,7,0,7,0.00
2014-8-10,91.0,70.0,51.6,62.9,55.5,47.2,86,63,37,30.07,29.90,8,0,10,0.00
2014-8-11,101.3,76.2,58.8,70.4,62.5,54.3,86,66,33,29.92,29.74,3,0,4,0.00
2014-8-12,82.2,70.6,65.8,65.9,62.3,60.5,86,76,52,29.84,29.75,7,0,9,0.14
2014-8-13,74.4,65.6,59.7,64.2,57.4,49.1,86,75,65,29.94,29.80,7,0,7,0.16
2014-8-14,71.4,64.3,59.7,62.9,58.7,55.5,86,82,73,29.97,29.89,5,0,5,0.00
2014-8-15,71.7,64.9,61.5,64.5,59.0,54.5,86,81,73,30.00,29.90,1,0,3,0.04
2014-8-16,80.9,68.4,61.5,65.7,60.7,56.9,86,77,57,30.05,29.99,5,0,5,0.00
2014-8-17,83.3,69.2,60.4,66.6,60.8,56.2,86,76,56,30.05,29.95,9,0,9,0.00
2014-8-18,89.9,70.6,57.3,69.1,61.1,53.2,86,74,48,29.97,29.77,8,0,8,0.04
2014-8-19,86.1,71.8,60.0,65.3,60.3,54.7,86,69,45,29.78,29.71,8,0,8,0.00
2014-8-20,75.0,64.7,57.0,56.7,52.9,50.5,80,66,52,29.94,29.77,14,0,14,0.00
2014-8-21,74.8,61.4,52.3,58.2,51.5,47.0,86,71,46,29.98,29.88,6,0,6,0.00
2014-8-22,77.3,62.5,48.5,59.9,52.8,44.5,86,72,52,30.03,29.93,5,0,5,0.00
2014-8-23,85.8,67.3,53.2,61.7,55.5,49.1,87,69,40,30.08,29.93,3,0,7,0.00
2014-8-24,81.5,65.8,54.1,61.8,55.5,50.0,86,71,47,29.93,29.81,6,0,6,0.00
2014-8-25,87.9,68.5,53.4,62.1,55.8,49.3,86,67,38,29.96,29.88,2,0,6,0.00
2014-8-26,90.8,71.5,55.5,62.8,57.3,51.1,86,64,36,29.99,29.89,4,0,4,0.02
2014-8-27,89.7,71.3,57.5,63.8,57.8,52.7,85,65,37,29.97,29.91,5,0,5,0.00
2014-8-28,77.9,65.5,55.5,61.7,56.6,51.1,86,74,56,30.03,29.94,6,0,8,0.00
2014-8-29,73.5,64.6,57.9,58.7,55.7,53.4,86,74,55,29.94,29.86,4,0,6,0.00
2014-8-30,62.5,60.0,57.0,57.1,54.3,50.2,86,81,75,29.93,29.81,0,0,2,0.04
2014-8-31,74.8,60.9,53.5,59.2,52.2,46.3,86,74,49,30.01,29.93,5,0,6,0.08
2014-9-1,77.7,62.1,50.1,57.8,52.7,46.1,87,73,48,30.04,29.90,6,0,6,0.00
2014-9-2,69.6,59.1,51.6,57.5,52.7,47.0,86,80,58,29.92,29.73,5,0,13,0.83
2014-9-3,67.8,57.4,51.4,58.4,50.4,44.4,86,78,66,30.05,29.83,3,0,4,0.24
2014-9-4,78.0,59.6,45.6,59.9,51.1,41.7,87,75,50,30.08,29.96,6,0,8,0.14
2014-9-5,85.0,63.2,49.4,63.8,52.8,45.4,86,72,38,30.10,29.96,4,0,7,0.20
2014-9-6,90.3,66.9,48.9,61.5,52.7,44.9,86,65,28,29.99,29.78,4,0,4,0.12
2014-9-7,100.0,66.1,50.7,60.8,52.6,46.0,85,65,25,29.84,29.73,4,0,4,1.08
2014-9-8,78.0,62.1,51.9,59.2,53.6,47.9,86,75,51,29.88,29.78,4,0,5,0.00
2014-9-9,73.4,59.8,52.8,60.0,53.1,48.4,86,79,59,30.06,29.88,2,0,2,1.02
2014-9-10,74.3,58.6,45.6,59.8,50.7,40.7,86,76,52,30.16,30.06,3,0,3,0.02
2014-9-11,90.8,61.2,43.8,46.4,40.4,36.5,87,53,20,30.21,30.07,1,0,6,0.02
2014-9-12,94.2,60.5,38.8,55.2,41.7,34.7,86,56,20,30.08,29.88,5,0,6,0.10
2014-9-13,92.8,62.8,41.1,56.1,43.9,37.4,87,57,19,29.94,29.78,3,0,3,0.00
2014-9-14,93.9,64.9,43.1,57.8,46.6,39.5,87,58,22,29.86,29.76,1,0,2,0.00
2014-9-15,94.6,68.0,45.6,60.6,50.9,41.7,86,60,26,29.83,29.72,0,0,0,0.00
2014-9-16,79.3,64.0,53.2,99.9,57.7,48.5,85,72,51,29.84,29.75,2,0,4,0.00
2014-9-17,75.0,63.1,57.7,99.9,85.6,52.9,85,79,62,29.82,29.62,0,0,0,0.00
2014-9-18,65.8,61.3,58.0,60.5,55.9,51.4,86,82,75,29.90,29.66,4,0,4,0.02
2014-9-19,79.5,67.0,56.1,62.1,57.7,51.6,85,73,50,30.04,29.90,5,0,5,0.08
2014-9-20,75.5,59.2,52.5,63.2,53.2,48.1,86,81,64,30.05,29.82,2,0,2,0.00
2014-9-21,89.5,67.4,49.8,66.9,54.6,44.4,85,67,37,29.88,29.74,2,0,3,0.00
2014-9-22,76.2,63.6,56.1,60.6,56.1,51.6,86,77,56,29.94,29.85,2,0,4,0.00
2014-9-23,67.2,59.6,54.8,61.2,53.1,46.9,86,79,63,29.87,29.64,0,0,2,0.26
2014-9-24,62.4,58.8,17.2,99.9,52.2,10.0,84,67,57,29.83,29.64,4,0,4,0.48
2014-9-25,67.8,58.8,54.6,99.9,56.2,42.8,86,72,58,29.83,29.75,1,0,1,0.20
2014-9-26,68.1,58.0,53.4,99.9,56.7,41.5,86,73,56,30.03,29.84,4,0,4,0.06
2014-9-27,67.8,57.2,50.7,58.6,50.1,44.3,86,77,67,30.07,30.00,2,0,4,0.04
2014-9-28,67.8,56.8,49.2,59.7,50.8,44.6,86,80,73,30.03,29.85,0,0,0,0.12
2014-9-29,61.8,54.1,46.0,56.6,47.5,39.0,86,79,64,29.92,29.80,4,0,4,0.00
2014-9-30,63.3,54.5,49.2,56.6,46.7,38.5,86,75,55,30.10,29.91,2,0,2,5.28
2014-10-1,72.6,56.7,49.4,59.7,48.3,40.5,86,74,58,30.15,30.08,3,0,3,1.48
2014-10-2,71.9,55.4,45.3,55.8,47.1,40.4,86,75,51,30.24,30.13,1,0,2,0.52
2014-10-3,78.4,56.3,41.9,60.9,47.3,36.6,86,74,49,30.23,30.06,1,0,1,0.16
2014-10-4,77.7,61.0,50.9,61.5,53.2,46.3,85,76,55,30.13,30.04,1,0,1,0.02
2014-10-5,52.3,51.8,51.2,47.9,47.1,46.2,85,84,83,30.08,30.08,0,0,0,0.00
2014-10-6,54.3,54.1,53.9,49.5,49.1,48.9,84,83,83,30.01,30.01,0,0,0,0.00
2014-10-7,72.1,61.0,54.3,63.4,54.2,46.6,85,79,69,29.91,29.83,0,0,2,0.20
2014-10-8,59.1,58.6,58.2,53.1,51.2,49.2,81,76,72,29.90,29.87,0,0,0,0.00
2014-10-9,73.0,58.2,50.1,61.8,49.1,38.5,85,72,63,30.00,29.91,0,0,0,0.55
2014-10-10,71.2,56.1,44.5,60.9,49.2,37.6,85,78,66,30.00,29.94,5,0,10,1.36
2014-10-11,65.8,56.0,49.6,58.2,48.9,40.6,85,77,65,30.13,29.94,5,0,12,7.78
2014-10-12,66.9,55.8,48.5,58.7,46.4,35.5,85,71,52,30.18,29.97,1,0,1,2.01
2014-10-13,74.6,58.7,46.9,58.2,48.5,38.2,84,70,46,29.98,29.59,8,0,8,0.46
2014-10-14,62.0,54.4,50.5,55.5,46.8,39.2,85,76,61,29.78,29.49,9,0,9,0.91
2014-10-15,57.3,52.1,47.6,52.4,42.4,35.5,85,70,52,29.93,29.46,9,0,11,0.81
2014-10-16,69.2,56.1,47.4,56.9,45.1,36.3,85,67,53,29.97,29.76,10,0,10,0.00
2014-10-17,62.5,57.5,53.7,49.9,45.7,40.7,84,66,45,29.79,29.67,10,0,10,0.00
2014-10-18,63.5,57.3,53.9,99.9,86.2,42.6,81,70,62,29.87,29.79,0,0,0,0.02
2014-10-19,63.3,63.3,63.3,99.9,99.9,99.9,62,62,62,29.86,29.86,0,0,0,0.00
2014-10-20,60.7,55.7,51.6,99.9,47.5,35.3,81,60,42,29.76,29.64,3,0,3,0.00
2014-10-21,64.0,54.3,49.6,55.2,43.9,32.4,84,69,49,29.87,29.68,6,0,7,0.00
2014-10-22,56.2,53.0,51.4,99.9,40.7,33.0,84,63,48,29.69,29.52,86,1,86,0.00
2014-10-23,53.2,49.6,48.7,48.2,39.8,35.2,83,69,59,29.70,29.65,4,0,4,0.00
2014-10-24,57.9,49.7,44.2,51.6,40.9,31.3,84,72,53,29.99,29.69,2,0,4,0.00
2014-10-25,60.9,54.5,48.0,52.6,47.7,39.0,84,78,65,29.68,29.24,18,1,20,0.00
2014-10-26,52.3,47.0,39.9,47.4,41.3,33.0,85,81,70,30.09,29.68,10,1,11,0.00
2014-10-27,59.3,48.1,40.2,99.9,71.4,30.1,84,72,53,30.10,29.90,8,0,8,2.00
2014-10-28,56.8,50.4,47.2,51.4,41.5,35.6,85,72,52,29.90,29.79,4,0,8,0.00
2014-10-29,62.9,54.7,48.0,56.3,46.7,36.5,85,75,53,30.06,29.88,6,0,7,0.00
2014-10-30,61.1,55.5,48.3,51.9,46.4,37.7,85,72,57,29.95,29.67,8,0,17,0.00
2014-10-31,52.8,50.3,46.9,44.1,36.3,31.0,73,59,47,29.83,29.62,0,0,1,0.00
2014-11-1,51.7,47.1,45.1,47.2,35.6,28.4,85,65,50,29.99,29.78,0,0,0,0.00
2014-11-2,56.8,47.8,41.5,52.0,37.0,27.4,85,67,47,30.08,29.99,0,0,1,0.00
2014-11-3,55.7,52.5,49.6,50.4,37.6,31.3,83,57,46,30.05,29.95,9,0,9,0.00
2014-11-4,57.9,52.4,48.0,99.9,43.0,33.5,85,69,52,30.21,29.92,11,0,11,0.00
2014-11-5,58.8,52.5,48.0,99.9,53.3,13.0,84,59,23,30.21,29.89,6,0,6,0.00
2014-11-6,61.8,53.7,47.4,56.1,42.1,28.6,85,67,37,30.23,29.71,20,1,21,0.00
2014-11-7,57.7,46.6,36.6,51.9,37.9,30.3,85,72,52,30.40,30.22,2,0,4,0.00
2014-11-8,57.5,43.4,34.7,99.9,37.4,25.1,84,75,48,30.32,29.99,0,0,0,0.00
2014-11-9,50.7,46.1,41.9,34.0,30.6,26.4,70,55,43,30.00,29.76,4,0,4,0.00
2014-11-10,51.2,41.7,33.4,46.5,29.1,19.9,85,63,35,30.13,29.98,0,0,2,0.00
2014-11-11,47.2,34.2,25.8,32.7,20.1,13.5,85,57,38,30.30,30.11,8,0,8,0.00
2014-11-12,43.8,34.3,25.7,99.9,35.9,7.4,57,37,25,30.29,30.07,6,2,9,0.82
2014-11-13,34.5,26.7,25.5,99.9,16.0,12.8,63,59,30,30.07,29.94,4,0,4,0.00
2014-11-14,44.4,28.4,19.2,29.5,17.4,14.1,83,65,34,30.25,29.98,3,0,3,0.00
2014-11-15,46.2,29.2,17.6,29.7,17.9,13.5,85,65,35,30.48,30.26,2,0,2,0.00
2014-11-16,46.7,32.1,22.8,28.2,19.6,13.8,78,61,38,30.46,30.30,2,0,4,0.00
2014-11-17,53.2,33.3,23.1,36.3,22.8,19.3,85,68,34,30.34,30.14,0,0,2,0.00
2014-11-18,51.2,33.4,25.1,34.8,25.6,20.7,85,75,43,30.14,30.02,0,0,0,0.00
2014-11-19,55.2,42.3,27.8,99.9,51.7,23.8,85,69,42,30.03,29.75,3,0,3,0.00
2014-11-20,39.2,39.2,39.2,99.9,99.9,99.9,63,63,63,29.83,29.83,0,0,0,0.00
2014-11-21,49.6,45.9,44.4,42.7,36.7,28.4,83,71,44,29.85,29.28,10,0,10,0.52
2014-11-22,46.9,44.6,41.1,99.9,43.0,35.3,85,83,76,30.07,29.46,5,0,13,0.00
2014-11-23,49.0,44.8,37.2,99.9,39.6,25.1,84,68,54,30.30,30.00,13,0,13,0.57
2014-11-24,51.0,41.3,35.2,99.9,29.0,21.5,64,49,31,30.31,30.01,5,0,10,0.06
2014-11-25,56.1,51.2,47.4,99.9,25.7,13.5,76,37,20,30.15,30.03,16,1,16,0.76
2014-11-26,59.9,56.1,52.8,99.9,60.5,42.9,82,79,68,30.09,29.80,13,1,13,0.00
2014-11-27,59.5,55.3,51.9,99.9,48.8,42.5,82,78,70,29.82,29.62,8,0,11,0.12
2014-11-28,53.4,43.9,33.7,99.9,33.0,17.8,81,63,49,29.62,29.44,13,0,13,1.81
2014-11-29,36.8,28.8,19.2,28.1,19.2,14.8,85,69,47,30.17,29.49,4,0,5,0.08
2014-11-30,33.6,25.2,18.1,29.3,19.7,14.1,85,80,52,30.19,30.05,4,0,5,0.02
2014-12-1,37.0,26.9,20.1,99.9,29.3,15.7,85,77,60,30.18,30.04,2,0,5,0.00
2014-12-2,37.5,25.8,18.3,99.9,29.9,-50.0,85,80,2,30.18,29.88,2,0,2,0.00
2014-12-3,48.2,36.2,26.4,99.9,34.7,12.8,85,70,24,29.87,29.70,6,0,6,0.00
2014-12-4,44.4,39.4,34.8,99.9,42.7,29.9,83,81,68,29.89,29.72,0,0,0,0.04
2014-12-5,40.0,40.0,39.9,30.2,30.1,30.0,68,68,67,29.89,29.89,0,0,0,0.00
2014-12-7,56.1,53.6,45.1,41.5,38.2,30.5,60,56,54,30.17,29.91,9,1,9,0.00
2014-12-8,59.7,50.7,45.6,99.9,42.3,39.2,83,71,55,29.99,29.80,4,0,6,0.22
2014-12-9,62.2,52.8,47.8,99.9,46.7,31.7,83,72,50,29.84,29.69,9,0,9,0.42
2014-12-10,50.1,48.8,48.3,44.1,43.8,43.4,83,83,82,29.71,29.48,3,0,3,0.00
2014-12-11,55.0,48.1,42.4,46.9,39.1,28.6,83,72,49,29.54,29.11,22,1,22,0.20
2014-12-12,52.8,47.7,42.9,46.2,41.0,30.3,83,78,60,29.99,29.50,14,0,14,0.26
2014-12-13,50.0,40.0,32.7,43.7,27.4,19.9,80,61,38,30.17,29.99,0,0,0,0.02
2014-12-14,51.4,39.0,28.5,43.2,25.5,9.1,83,59,25,30.17,29.93,8,0,8,0.00
2014-12-15,52.8,48.6,44.4,32.5,30.0,28.4,55,48,43,29.93,29.77,11,2,11,0.00
2014-12-16,49.2,46.6,42.9,38.9,34.0,29.2,79,62,46,29.81,29.76,4,0,4,0.04
2014-12-17,48.9,44.9,41.3,41.1,37.4,32.4,82,75,60,29.87,29.74,4,0,4,0.04
2014-12-18,49.2,44.2,39.7,43.3,36.2,28.8,83,74,57,29.91,29.68,2,0,3,0.28
2014-12-19,50.0,43.7,40.8,44.8,32.0,22.0,83,64,43,29.91,29.74,4,0,9,0.16
2014-12-20,55.0,46.4,41.5,48.9,34.8,24.7,82,65,36,29.82,29.40,10,1,15,0.32
2014-12-21,53.4,50.0,47.8,48.0,43.4,32.5,83,78,52,30.05,29.49,6,0,15,0.10
2014-12-22,51.6,43.4,37.9,44.8,33.8,21.5,83,70,39,30.31,30.04,0,0,2,0.00
2014-12-23,53.4,44.2,39.5,46.7,32.4,21.0,84,64,40,30.25,30.00,4,0,7,1.41
2014-12-24,46.5,39.9,37.9,40.1,23.2,11.8,83,52,28,30.00,29.84,2,0,2,0.44
2014-12-25,44.0,39.0,35.7,36.6,21.3,12.7,76,50,30,30.23,30.00,0,0,0,0.18
2014-12-26,44.7,38.7,35.4,39.2,21.4,12.0,83,51,31,30.32,30.21,0,0,0,0.00
2014-12-27,46.2,41.2,38.2,39.5,22.4,14.6,81,48,30,30.25,29.95,8,0,12,0.44
2014-12-28,43.1,38.3,34.5,34.5,20.0,12.9,77,48,32,30.15,30.01,0,0,0,0.38
2014-12-29,41.1,35.1,25.3,99.9,42.5,7.0,84,61,26,30.65,30.11,0,0,0,0.00
2014-12-30,35.7,27.6,21.0,25.2,20.9,16.9,85,76,61,30.76,30.65,0,0,0,0.00
2014-12-31,38.2,26.6,19.7,99.9,22.5,15.0,85,79,64,30.66,30.36,0,0,2,0.00
2015-1-1,41.5,28.2,21.0,32.6,22.6,16.4,85,79,54,30.36,30.15,0,0,0,0.02
2015-1-2,41.1,33.8,26.2,34.5,25.6,20.2,83,72,55,30.16,30.02,2,0,6,0.08